Terminal Aerodrome Forecast
Issued by NWS Wilmington, NC

Home | Current Version | Previous Version | Text Only | Print | Product List | Glossary On
Versions: 1 2 3 4 5 6 7 8 9 10 11 12
000
FTUS42 KILM 291700
TAFMYR
TAF
KMYR 291730Z 2918/3018 14010KT P6SM SKC
     FM300200 17009KT P6SM FEW020
     FM300600 VRB03KT 3SM BR SCT005
     FM301400 14008KT P6SM SCT035=

USA.gov is the U.S. government's official web portal to all federal, state and local government web resources and services.